sensor_id;sensor_type;location;lat;lon;timestamp;pressure;altitude;pressure_sealevel;temperature;humidity
68594;BME280;55563;52.416;13.548;2022-09-09T00:02:20;100640.53;;;14.38;100.00
68594;BME280;55563;52.416;13.548;2022-09-09T00:04:26;100637.75;;;14.49;100.00
68594;BME280;55563;52.416;13.548;2022-09-09T00:06:31;100643.81;;;14.49;100.00
68594;BME280;55563;52.416;13.548;2022-09-09T00:09:00;100637.81;;;14.44;100.00
68594;BME280;55563;52.416;13.548;2022-09-09T00:11:03;100645.53;;;14.40;100.00
68594;BME280;55563;52.416;13.548;2022-09-09T00:13:28;100649.19;;;14.44;100.00
68594;BME280;55563;52.416;13.548;2022-09-09T00:15:42;100651.88;;;14.39;100.00
68594;BME280;55563;52.416;13.548;2022-09-09T00:18:01;100649.75;;;14.41;100.00
68594;BME280;55563;52.416;13.548;2022-09-09T00:20:32;100638.19;;;14.32;100.00
68594;BME280;55563;52.416;13.548;2022-09-09T00:22:40;100643.53;;;14.27;100.00
68594;BME280;55563;52.416;13.548;2022-09-09T00:24:49;100629.53;;;14.26;100.00
68594;BME280;55563;52.416;13.548;2022-09-09T00:27:01;100646.72;;;14.29;100.00
68594;BME280;55563;52.416;13.548;2022-09-09T00:29:56;100639.31;;;14.26;100.00
68594;BME280;55563;52.416;13.548;2022-09-09T00:31:44;100633.09;;;14.17;100.00
68594;BME280;55563;52.416;13.548;2022-09-09T00:33:46;100636.47;;;14.22;100.00
68594;BME280;55563;52.416;13.548;2022-09-09T00:35:49;100624.53;;;14.25;100.00
68594;BME280;55563;52.416;13.548;2022-09-09T00:37:54;100621.19;;;14.19;100.00
68594;BME280;55563;52.416;13.548;2022-09-09T00:39:59;100622.22;;;14.18;100.00
68594;BME280;55563;52.416;13.548;2022-09-09T00:42:19;100618.06;;;14.12;100.00
68594;BME280;55563;52.416;13.548;2022-09-09T00:44:33;100625.78;;;14.09;100.00
68594;BME280;55563;52.416;13.548;2022-09-09T00:49:35;100626.78;;;14.13;100.00
68594;BME280;55563;52.416;13.548;2022-09-09T00:56:39;100631.06;;;13.85;100.00
68594;BME280;55563;52.416;13.548;2022-09-09T00:58:53;100628.69;;;13.83;100.00
68594;BME280;55563;52.416;13.548;2022-09-09T01:01:15;100630.63;;;13.73;100.00
68594;BME280;55563;52.416;13.548;2022-09-09T01:03:38;100634.72;;;13.60;100.00
68594;BME280;55563;52.416;13.548;2022-09-09T01:05:53;100637.38;;;13.60;100.00
68594;BME280;55563;52.416;13.548;2022-09-09T01:07:56;100636.03;;;13.58;100.00
68594;BME280;55563;52.416;13.548;2022-09-09T01:10:00;100637.50;;;13.74;100.00
68594;BME280;55563;52.416;13.548;2022-09-09T01:12:25;100640.34;;;13.77;100.00
68594;BME280;55563;52.416;13.548;2022-09-09T01:16:48;100635.03;;;13.53;100.00
68594;BME280;55563;52.416;13.548;2022-09-09T01:18:52;100639.47;;;13.58;100.00
68594;BME280;55563;52.416;13.548;2022-09-09T01:26:25;100638.34;;;13.69;100.00
68594;BME280;55563;52.416;13.548;2022-09-09T01:28:28;100641.31;;;13.58;100.00
68594;BME280;55563;52.416;13.548;2022-09-09T01:30:37;100633.75;;;13.51;100.00
68594;BME280;55563;52.416;13.548;2022-09-09T01:32:45;100638.94;;;13.61;100.00
68594;BME280;55563;52.416;13.548;2022-09-09T01:34:47;100634.91;;;13.69;100.00
68594;BME280;55563;52.416;13.548;2022-09-09T01:37:07;100636.69;;;13.73;100.00
68594;BME280;55563;52.416;13.548;2022-09-09T01:39:11;100637.75;;;13.43;100.00
68594;BME280;55563;52.416;13.548;2022-09-09T01:41:13;100640.78;;;13.32;100.00
68594;BME280;55563;52.416;13.548;2022-09-09T01:43:20;100635.44;;;13.37;100.00
68594;BME280;55563;52.416;13.548;2022-09-09T01:45:23;100631.69;;;13.43;100.00
68594;BME280;55563;52.416;13.548;2022-09-09T01:47:24;100633.34;;;13.34;100.00
68594;BME280;55563;52.416;13.548;2022-09-09T01:49:35;100630.16;;;13.37;100.00
68594;BME280;55563;52.416;13.548;2022-09-09T01:51:46;100632.50;;;13.38;100.00
68594;BME280;55563;52.416;13.548;2022-09-09T01:53:50;100635.41;;;13.42;100.00
68594;BME280;55563;52.416;13.548;2022-09-09T01:58:45;100635.28;;;13.23;100.00
68594;BME280;55563;52.416;13.548;2022-09-09T02:00:59;100640.78;;;13.32;100.00
68594;BME280;55563;52.416;13.548;2022-09-09T02:03:09;100640.53;;;13.28;100.00
68594;BME280;55563;52.416;13.548;2022-09-09T02:05:36;100643.94;;;13.29;100.00
68594;BME280;55563;52.416;13.548;2022-09-09T02:07:48;100643.69;;;13.30;100.00
68594;BME280;55563;52.416;13.548;2022-09-09T02:10:05;100637.78;;;13.38;100.00
68594;BME280;55563;52.416;13.548;2022-09-09T02:12:14;100644.16;;;13.37;100.00
68594;BME280;55563;52.416;13.548;2022-09-09T02:14:28;100645.81;;;13.28;100.00
68594;BME280;55563;52.416;13.548;2022-09-09T02:16:37;100647.94;;;13.26;100.00
68594;BME280;55563;52.416;13.548;2022-09-09T02:18:47;100649.75;;;13.31;100.00
68594;BME280;55563;52.416;13.548;2022-09-09T02:20:51;100647.16;;;13.26;100.00
68594;BME280;55563;52.416;13.548;2022-09-09T02:22:53;100644.31;;;13.17;100.00
68594;BME280;55563;52.416;13.548;2022-09-09T02:24:58;100647.72;;;13.18;100.00
68594;BME280;55563;52.416;13.548;2022-09-09T02:27:04;100648.03;;;13.11;100.00
68594;BME280;55563;52.416;13.548;2022-09-09T02:29:14;100643.50;;;13.17;100.00
68594;BME280;55563;52.416;13.548;2022-09-09T02:31:19;100639.63;;;13.04;100.00
68594;BME280;55563;52.416;13.548;2022-09-09T02:33:25;100648.03;;;13.06;100.00
68594;BME280;55563;52.416;13.548;2022-09-09T02:35:28;100652.78;;;13.09;100.00
68594;BME280;55563;52.416;13.548;2022-09-09T02:37:35;100647.25;;;13.05;100.00
68594;BME280;55563;52.416;13.548;2022-09-09T02:39:37;100646.19;;;13.06;100.00
68594;BME280;55563;52.416;13.548;2022-09-09T02:41:42;100644.91;;;13.04;100.00
68594;BME280;55563;52.416;13.548;2022-09-09T02:43:43;100641.44;;;13.08;100.00
68594;BME280;55563;52.416;13.548;2022-09-09T02:45:58;100647.25;;;13.05;100.00
68594;BME280;55563;52.416;13.548;2022-09-09T02:48:14;100639.56;;;13.14;100.00
68594;BME280;55563;52.416;13.548;2022-09-09T02:50:20;100637.72;;;13.09;100.00
68594;BME280;55563;52.416;13.548;2022-09-09T02:52:30;100637.47;;;13.11;100.00
68594;BME280;55563;52.416;13.548;2022-09-09T02:54:37;100639.06;;;13.12;100.00
68594;BME280;55563;52.416;13.548;2022-09-09T02:56:49;100641.41;;;13.19;100.00
68594;BME280;55563;52.416;13.548;2022-09-09T02:58:54;100648.78;;;13.17;100.00
68594;BME280;55563;52.416;13.548;2022-09-09T03:00:55;100650.63;;;13.16;100.00
68594;BME280;55563;52.416;13.548;2022-09-09T03:02:59;100649.06;;;13.10;100.00
68594;BME280;55563;52.416;13.548;2022-09-09T03:05:00;100659.63;;;13.10;100.00
68594;BME280;55563;52.416;13.548;2022-09-09T03:07:00;100654.09;;;13.12;100.00
68594;BME280;55563;52.416;13.548;2022-09-09T03:09:01;100660.16;;;13.07;100.00
68594;BME280;55563;52.416;13.548;2022-09-09T03:11:03;100657.84;;;13.00;100.00
68594;BME280;55563;52.416;13.548;2022-09-09T03:13:07;100657.84;;;12.95;100.00
68594;BME280;55563;52.416;13.548;2022-09-09T03:15:12;100651.00;;;12.99;100.00
68594;BME280;55563;52.416;13.548;2022-09-09T03:17:14;100657.53;;;13.07;100.00
68594;BME280;55563;52.416;13.548;2022-09-09T03:19:22;100658.34;;;13.02;100.00
68594;BME280;55563;52.416;13.548;2022-09-09T03:21:24;100659.22;;;12.93;100.00
68594;BME280;55563;52.416;13.548;2022-09-09T03:23:25;100658.69;;;12.91;100.00
68594;BME280;55563;52.416;13.548;2022-09-09T03:25:26;100665.31;;;12.83;100.00
68594;BME280;55563;52.416;13.548;2022-09-09T03:27:29;100667.75;;;12.75;100.00
68594;BME280;55563;52.416;13.548;2022-09-09T03:29:30;100660.84;;;12.84;100.00
68594;BME280;55563;52.416;13.548;2022-09-09T03:31:34;100664.78;;;12.81;100.00
68594;BME280;55563;52.416;13.548;2022-09-09T03:33:37;100663.72;;;12.87;100.00
68594;BME280;55563;52.416;13.548;2022-09-09T03:35:39;100662.06;;;12.96;100.00
68594;BME280;55563;52.416;13.548;2022-09-09T03:37:47;100659.75;;;12.95;100.00
68594;BME280;55563;52.416;13.548;2022-09-09T03:39:49;100661.06;;;12.92;100.00
68594;BME280;55563;52.416;13.548;2022-09-09T03:41:51;100663.94;;;12.96;100.00
68594;BME280;55563;52.416;13.548;2022-09-09T03:43:53;100653.66;;;12.94;100.00
68594;BME280;55563;52.416;13.548;2022-09-09T03:45:55;100663.41;;;12.99;100.00
68594;BME280;55563;52.416;13.548;2022-09-09T03:48:00;100667.59;;;13.00;100.00
68594;BME280;55563;52.416;13.548;2022-09-09T03:50:01;100669.19;;;13.01;100.00
68594;BME280;55563;52.416;13.548;2022-09-09T03:52:03;100670.78;;;12.97;100.00
68594;BME280;55563;52.416;13.548;2022-09-09T03:54:04;100667.88;;;12.98;100.00
68594;BME280;55563;52.416;13.548;2022-09-09T03:56:08;100668.97;;;12.92;100.00
68594;BME280;55563;52.416;13.548;2022-09-09T03:58:09;100669.50;;;12.94;100.00
68594;BME280;55563;52.416;13.548;2022-09-09T04:00:11;100660.03;;;12.88;100.00
68594;BME280;55563;52.416;13.548;2022-09-09T04:02:25;100668.53;;;12.80;100.00
68594;BME280;55563;52.416;13.548;2022-09-09T04:04:26;100666.44;;;12.72;100.00
68594;BME280;55563;52.416;13.548;2022-09-09T04:06:27;100661.97;;;12.67;100.00
68594;BME280;55563;52.416;13.548;2022-09-09T04:08:29;100661.50;;;12.60;100.00
68594;BME280;55563;52.416;13.548;2022-09-09T04:10:33;100659.66;;;12.56;100.00
68594;BME280;55563;52.416;13.548;2022-09-09T04:12:33;100650.97;;;12.55;100.00
68594;BME280;55563;52.416;13.548;2022-09-09T04:14:35;100655.13;;;12.66;100.00
68594;BME280;55563;52.416;13.548;2022-09-09T04:16:37;100658.84;;;12.60;100.00
68594;BME280;55563;52.416;13.548;2022-09-09T04:18:38;100662.31;;;12.56;100.00
68594;BME280;55563;52.416;13.548;2022-09-09T04:20:39;100663.13;;;12.51;100.00
68594;BME280;55563;52.416;13.548;2022-09-09T04:22:40;100666.47;;;12.62;100.00
68594;BME280;55563;52.416;13.548;2022-09-09T04:24:41;100668.59;;;12.60;100.00
68594;BME280;55563;52.416;13.548;2022-09-09T04:26:42;100670.22;;;12.51;100.00
68594;BME280;55563;52.416;13.548;2022-09-09T04:28:43;100664.16;;;12.55;100.00
68594;BME280;55563;52.416;13.548;2022-09-09T04:30:49;100671.72;;;12.67;100.00
68594;BME280;55563;52.416;13.548;2022-09-09T04:32:50;100674.38;;;12.67;100.00
68594;BME280;55563;52.416;13.548;2022-09-09T04:34:51;100675.75;;;12.54;100.00
68594;BME280;55563;52.416;13.548;2022-09-09T04:36:52;100680.25;;;12.49;100.00
68594;BME280;55563;52.416;13.548;2022-09-09T04:38:53;100685.25;;;12.50;100.00
68594;BME280;55563;52.416;13.548;2022-09-09T04:40:53;100678.94;;;12.51;100.00
68594;BME280;55563;52.416;13.548;2022-09-09T04:42:58;100688.94;;;12.54;100.00
68594;BME280;55563;52.416;13.548;2022-09-09T04:44:58;100690.25;;;12.52;100.00
68594;BME280;55563;52.416;13.548;2022-09-09T04:46:59;100683.66;;;12.54;100.00
68594;BME280;55563;52.416;13.548;2022-09-09T04:49:00;100685.47;;;12.59;100.00
68594;BME280;55563;52.416;13.548;2022-09-09T04:51:06;100690.19;;;12.67;100.00
68594;BME280;55563;52.416;13.548;2022-09-09T04:53:08;100691.75;;;12.73;100.00
68594;BME280;55563;52.416;13.548;2022-09-09T04:55:11;100686.47;;;12.73;100.00
68594;BME280;55563;52.416;13.548;2022-09-09T04:57:15;100694.91;;;12.80;100.00
68594;BME280;55563;52.416;13.548;2022-09-09T04:59:16;100699.91;;;12.77;100.00
68594;BME280;55563;52.416;13.548;2022-09-09T05:01:21;100690.38;;;12.81;100.00
68594;BME280;55563;52.416;13.548;2022-09-09T05:03:24;100685.69;;;12.73;100.00
68594;BME280;55563;52.416;13.548;2022-09-09T05:05:25;100693.59;;;12.73;100.00
68594;BME280;55563;52.416;13.548;2022-09-09T05:07:26;100697.25;;;12.82;100.00
68594;BME280;55563;52.416;13.548;2022-09-09T05:09:28;100691.16;;;12.86;100.00
68594;BME280;55563;52.416;13.548;2022-09-09T05:11:31;100703.25;;;12.92;100.00
68594;BME280;55563;52.416;13.548;2022-09-09T05:13:38;100697.69;;;12.99;100.00
68594;BME280;55563;52.416;13.548;2022-09-09T05:15:40;100697.38;;;13.05;100.00
68594;BME280;55563;52.416;13.548;2022-09-09T05:17:43;100705.28;;;13.05;100.00
68594;BME280;55563;52.416;13.548;2022-09-09T05:19:44;100700.78;;;13.16;100.00
68594;BME280;55563;52.416;13.548;2022-09-09T05:21:45;100703.38;;;13.26;100.00
68594;BME280;55563;52.416;13.548;2022-09-09T05:23:47;100705.41;;;13.34;100.00
68594;BME280;55563;52.416;13.548;2022-09-09T05:25:56;100709.56;;;13.45;100.00
68594;BME280;55563;52.416;13.548;2022-09-09T05:27:58;100704.19;;;13.61;100.00
68594;BME280;55563;52.416;13.548;2022-09-09T05:30:00;100707.09;;;13.59;100.00
68594;BME280;55563;52.416;13.548;2022-09-09T05:32:01;100696.44;;;13.69;100.00
68594;BME280;55563;52.416;13.548;2022-09-09T05:34:02;100700.81;;;13.84;100.00
68594;BME280;55563;52.416;13.548;2022-09-09T05:36:05;100698.81;;;14.00;100.00
68594;BME280;55563;52.416;13.548;2022-09-09T05:38:07;100701.47;;;14.00;100.00
68594;BME280;55563;52.416;13.548;2022-09-09T05:40:08;100703.28;;;14.04;100.00
68594;BME280;55563;52.416;13.548;2022-09-09T05:42:11;100708.84;;;14.26;100.00
68594;BME280;55563;52.416;13.548;2022-09-09T05:44:12;100701.75;;;14.22;100.00
68594;BME280;55563;52.416;13.548;2022-09-09T05:46:14;100710.16;;;14.29;100.00
68594;BME280;55563;52.416;13.548;2022-09-09T05:48:15;100711.53;;;14.50;100.00
68594;BME280;55563;52.416;13.548;2022-09-09T05:50:16;100707.25;;;14.54;100.00
68594;BME280;55563;52.416;13.548;2022-09-09T05:52:17;100703.56;;;14.74;100.00
68594;BME280;55563;52.416;13.548;2022-09-09T05:54:18;100699.06;;;15.31;100.00
68594;BME280;55563;52.416;13.548;2022-09-09T05:56:24;100713.09;;;15.68;100.00
68594;BME280;55563;52.416;13.548;2022-09-09T05:58:26;100712.59;;;15.66;100.00
68594;BME280;55563;52.416;13.548;2022-09-09T06:00:27;100711.31;;;16.10;100.00
68594;BME280;55563;52.416;13.548;2022-09-09T06:02:28;100717.03;;;16.85;100.00
68594;BME280;55563;52.416;13.548;2022-09-09T06:04:29;100717.00;;;16.99;100.00
68594;BME280;55563;52.416;13.548;2022-09-09T06:06:33;100720.00;;;16.43;100.00
68594;BME280;55563;52.416;13.548;2022-09-09T06:08:40;100722.66;;;16.43;100.00
68594;BME280;55563;52.416;13.548;2022-09-09T06:10:44;100729.75;;;17.47;100.00
68594;BME280;55563;52.416;13.548;2022-09-09T06:12:45;100729.69;;;18.44;94.09
68594;BME280;55563;52.416;13.548;2022-09-09T06:14:46;100727.06;;;19.18;89.92
68594;BME280;55563;52.416;13.548;2022-09-09T06:16:48;100724.53;;;19.39;88.41
68594;BME280;55563;52.416;13.548;2022-09-09T06:18:54;100721.66;;;20.42;84.59
68594;BME280;55563;52.416;13.548;2022-09-09T06:20:57;100717.22;;;20.08;83.47
68594;BME280;55563;52.416;13.548;2022-09-09T06:22:58;100714.75;;;19.86;85.06
68594;BME280;55563;52.416;13.548;2022-09-09T06:24:58;100720.59;;;19.19;88.63
68594;BME280;55563;52.416;13.548;2022-09-09T06:27:02;100724.47;;;19.90;85.24
68594;BME280;55563;52.416;13.548;2022-09-09T06:29:07;100721.13;;;20.49;82.95
68594;BME280;55563;52.416;13.548;2022-09-09T06:31:10;100722.22;;;20.77;82.15
68594;BME280;55563;52.416;13.548;2022-09-09T06:33:12;100726.00;;;21.26;80.21
68594;BME280;55563;52.416;13.548;2022-09-09T06:35:13;100731.03;;;21.27;80.67
68594;BME280;55563;52.416;13.548;2022-09-09T06:37:14;100730.69;;;21.08;79.08
68594;BME280;55563;52.416;13.548;2022-09-09T06:39:20;100727.59;;;20.48;83.50
68594;BME280;55563;52.416;13.548;2022-09-09T06:41:22;100730.47;;;21.55;79.48
68594;BME280;55563;52.416;13.548;2022-09-09T06:43:23;100735.06;;;21.99;77.31
68594;BME280;55563;52.416;13.548;2022-09-09T06:45:25;100742.47;;;22.51;74.94
68594;BME280;55563;52.416;13.548;2022-09-09T06:47:29;100739.22;;;22.21;74.54
68594;BME280;55563;52.416;13.548;2022-09-09T06:49:32;100732.00;;;21.44;75.07
68594;BME280;55563;52.416;13.548;2022-09-09T06:51:34;100733.41;;;21.95;75.00
68594;BME280;55563;52.416;13.548;2022-09-09T06:53:38;100741.50;;;21.86;76.26
68594;BME280;55563;52.416;13.548;2022-09-09T06:55:39;100737.81;;;19.99;84.11
68594;BME280;55563;52.416;13.548;2022-09-09T06:57:43;100725.97;;;20.17;83.76
68594;BME280;55563;52.416;13.548;2022-09-09T06:59:49;100734.88;;;19.40;88.11
68594;BME280;55563;52.416;13.548;2022-09-09T07:01:50;100725.47;;;19.43;89.58
68594;BME280;55563;52.416;13.548;2022-09-09T07:03:54;100729.56;;;19.49;89.10
68594;BME280;55563;52.416;13.548;2022-09-09T07:05:56;100727.66;;;18.98;92.42
68594;BME280;55563;52.416;13.548;2022-09-09T07:07:57;100734.66;;;18.68;92.26
68594;BME280;55563;52.416;13.548;2022-09-09T07:10:00;100729.41;;;19.02;90.51
68594;BME280;55563;52.416;13.548;2022-09-09T07:12:01;100735.22;;;19.13;91.91
68594;BME280;55563;52.416;13.548;2022-09-09T07:14:05;100740.84;;;18.94;92.96
68594;BME280;55563;52.416;13.548;2022-09-09T07:16:08;100752.56;;;18.45;94.59
68594;BME280;55563;52.416;13.548;2022-09-09T07:18:09;100755.09;;;18.50;94.56
68594;BME280;55563;52.416;13.548;2022-09-09T07:20:11;100742.19;;;18.35;94.73
68594;BME280;55563;52.416;13.548;2022-09-09T07:22:12;100743.44;;;18.68;95.78
68594;BME280;55563;52.416;13.548;2022-09-09T07:24:14;100743.88;;;18.62;94.06
68594;BME280;55563;52.416;13.548;2022-09-09T07:26:18;100735.28;;;18.65;96.67
68594;BME280;55563;52.416;13.548;2022-09-09T07:28:21;100743.13;;;18.39;97.82
68594;BME280;55563;52.416;13.548;2022-09-09T07:30:23;100738.47;;;19.10;95.19
68594;BME280;55563;52.416;13.548;2022-09-09T07:32:24;100744.88;;;19.00;94.49
68594;BME280;55563;52.416;13.548;2022-09-09T07:34:26;100742.84;;;18.89;94.65
68594;BME280;55563;52.416;13.548;2022-09-09T07:36:29;100742.06;;;18.80;94.68
68594;BME280;55563;52.416;13.548;2022-09-09T07:38:31;100743.94;;;18.79;93.15
68594;BME280;55563;52.416;13.548;2022-09-09T07:40:33;100748.81;;;18.46;92.62
68594;BME280;55563;52.416;13.548;2022-09-09T07:42:34;100745.22;;;18.99;94.14
68594;BME280;55563;52.416;13.548;2022-09-09T07:44:37;100737.66;;;18.84;93.52
68594;BME280;55563;52.416;13.548;2022-09-09T07:46:45;100746.31;;;18.98;92.68
68594;BME280;55563;52.416;13.548;2022-09-09T07:48:53;100739.44;;;19.31;91.85
68594;BME280;55563;52.416;13.548;2022-09-09T07:51:16;100753.56;;;19.49;92.90
68594;BME280;55563;52.416;13.548;2022-09-09T07:53:18;100745.38;;;19.02;91.73
68594;BME280;55563;52.416;13.548;2022-09-09T07:55:22;100753.19;;;18.90;91.97
68594;BME280;55563;52.416;13.548;2022-09-09T07:57:26;100753.06;;;19.30;93.30
68594;BME280;55563;52.416;13.548;2022-09-09T07:59:28;100754.47;;;19.18;92.88
68594;BME280;55563;52.416;13.548;2022-09-09T08:01:34;100757.31;;;19.39;91.73
68594;BME280;55563;52.416;13.548;2022-09-09T08:03:38;100765.44;;;19.43;92.99
68594;BME280;55563;52.416;13.548;2022-09-09T08:05:39;100755.88;;;19.76;91.59
68594;BME280;55563;52.416;13.548;2022-09-09T08:07:39;100766.84;;;19.92;90.39
68594;BME280;55563;52.416;13.548;2022-09-09T08:09:40;100762.16;;;19.89;88.55
68594;BME280;55563;52.416;13.548;2022-09-09T08:11:47;100764.84;;;19.63;88.84
68594;BME280;55563;52.416;13.548;2022-09-09T08:13:50;100770.97;;;19.72;89.35
68594;BME280;55563;52.416;13.548;2022-09-09T08:15:51;100764.38;;;19.78;89.39
68594;BME280;55563;52.416;13.548;2022-09-09T08:17:53;100773.81;;;19.76;89.75
68594;BME280;55563;52.416;13.548;2022-09-09T08:19:53;100772.34;;;19.87;88.71
68594;BME280;55563;52.416;13.548;2022-09-09T08:21:58;100774.72;;;19.63;89.59
68594;BME280;55563;52.416;13.548;2022-09-09T08:24:00;100775.38;;;19.59;90.34
68594;BME280;55563;52.416;13.548;2022-09-09T08:26:05;100768.91;;;19.78;87.79
68594;BME280;55563;52.416;13.548;2022-09-09T08:28:06;100772.06;;;19.80;87.99
68594;BME280;55563;52.416;13.548;2022-09-09T08:30:06;100772.53;;;19.73;88.83
68594;BME280;55563;52.416;13.548;2022-09-09T08:32:08;100765.63;;;19.72;86.42
68594;BME280;55563;52.416;13.548;2022-09-09T08:34:11;100767.22;;;19.56;90.47
68594;BME280;55563;52.416;13.548;2022-09-09T08:36:15;100767.66;;;19.84;89.97
68594;BME280;55563;52.416;13.548;2022-09-09T08:38:16;100768.16;;;19.69;89.86
68594;BME280;55563;52.416;13.548;2022-09-09T08:40:18;100771.59;;;19.78;90.04
68594;BME280;55563;52.416;13.548;2022-09-09T08:42:41;100779.75;;;19.90;90.20
68594;BME280;55563;52.416;13.548;2022-09-09T08:45:09;100765.91;;;19.96;90.05
68594;BME280;55563;52.416;13.548;2022-09-09T08:47:26;100774.25;;;19.95;90.43
68594;BME280;55563;52.416;13.548;2022-09-09T08:52:02;100773.44;;;19.94;89.68
68594;BME280;55563;52.416;13.548;2022-09-09T08:54:08;100769.03;;;19.98;88.43
68594;BME280;55563;52.416;13.548;2022-09-09T08:56:13;100770.78;;;19.94;90.07
68594;BME280;55563;52.416;13.548;2022-09-09T08:58:23;100775.94;;;19.91;90.37
68594;BME280;55563;52.416;13.548;2022-09-09T09:00:36;100776.13;;;19.94;89.03
68594;BME280;55563;52.416;13.548;2022-09-09T09:03:15;100778.03;;;19.85;89.66
68594;BME280;55563;52.416;13.548;2022-09-09T09:05:30;100784.72;;;20.00;89.42
68594;BME280;55563;52.416;13.548;2022-09-09T09:10:20;100776.44;;;19.93;86.11
68594;BME280;55563;52.416;13.548;2022-09-09T09:12:29;100780.94;;;20.01;86.37
68594;BME280;55563;52.416;13.548;2022-09-09T09:14:35;100782.66;;;20.06;86.40
68594;BME280;55563;52.416;13.548;2022-09-09T09:16:53;100789.38;;;20.20;86.43
68594;BME280;55563;52.416;13.548;2022-09-09T09:18:55;100778.66;;;20.29;85.01
68594;BME280;55563;52.416;13.548;2022-09-09T09:21:06;100785.16;;;20.66;84.92
68594;BME280;55563;52.416;13.548;2022-09-09T09:23:20;100778.84;;;20.70;82.90
68594;BME280;55563;52.416;13.548;2022-09-09T09:25:31;100785.56;;;21.06;83.84
68594;BME280;55563;52.416;13.548;2022-09-09T09:27:43;100774.84;;;21.14;82.46
68594;BME280;55563;52.416;13.548;2022-09-09T09:29:48;100776.91;;;21.09;82.16
68594;BME280;55563;52.416;13.548;2022-09-09T09:31:53;100778.84;;;21.00;80.55
68594;BME280;55563;52.416;13.548;2022-09-09T09:33:58;100773.88;;;21.19;82.31
68594;BME280;55563;52.416;13.548;2022-09-09T09:36:02;100768.84;;;21.38;82.42
68594;BME280;55563;52.416;13.548;2022-09-09T09:40:27;100769.16;;;21.57;79.17
68594;BME280;55563;52.416;13.548;2022-09-09T09:42:28;100766.81;;;21.56;79.83
68594;BME280;55563;52.416;13.548;2022-09-09T09:44:31;100772.75;;;21.61;79.27
68594;BME280;55563;52.416;13.548;2022-09-09T09:46:42;100779.34;;;21.97;80.53
68594;BME280;55563;52.416;13.548;2022-09-09T09:48:56;100767.91;;;21.88;76.03
68594;BME280;55563;52.416;13.548;2022-09-09T09:51:00;100772.81;;;21.86;78.56
68594;BME280;55563;52.416;13.548;2022-09-09T09:53:04;100776.38;;;22.10;77.48
68594;BME280;55563;52.416;13.548;2022-09-09T09:55:13;100771.94;;;22.27;77.62
68594;BME280;55563;52.416;13.548;2022-09-09T09:57:16;100776.91;;;22.04;76.72
68594;BME280;55563;52.416;13.548;2022-09-09T09:59:34;100772.38;;;22.41;76.77
68594;BME280;55563;52.416;13.548;2022-09-09T10:01:35;100777.31;;;22.39;76.63
68594;BME280;55563;52.416;13.548;2022-09-09T10:03:51;100784.09;;;22.24;75.73
68594;BME280;55563;52.416;13.548;2022-09-09T10:05:53;100775.81;;;22.05;75.92
68594;BME280;55563;52.416;13.548;2022-09-09T10:08:10;100769.47;;;22.09;76.06
68594;BME280;55563;52.416;13.548;2022-09-09T10:10:15;100777.97;;;22.36;77.12
68594;BME280;55563;52.416;13.548;2022-09-09T10:14:52;100774.22;;;22.73;76.51
68594;BME280;55563;52.416;13.548;2022-09-09T10:19:31;100770.06;;;22.76;76.57
68594;BME280;55563;52.416;13.548;2022-09-09T10:22:02;100774.19;;;22.61;73.13
68594;BME280;55563;52.416;13.548;2022-09-09T10:27:27;100778.66;;;22.57;76.73
68594;BME280;55563;52.416;13.548;2022-09-09T10:29:26;100778.06;;;22.27;77.09
68594;BME280;55563;52.416;13.548;2022-09-09T10:31:55;100777.19;;;22.59;77.09
68594;BME280;55563;52.416;13.548;2022-09-09T10:36:46;100778.53;;;22.29;77.40
68594;BME280;55563;52.416;13.548;2022-09-09T10:38:58;100773.50;;;22.28;78.02
68594;BME280;55563;52.416;13.548;2022-09-09T10:41:16;100783.94;;;22.08;77.86
68594;BME280;55563;52.416;13.548;2022-09-09T10:46:30;100784.31;;;22.31;77.18
68594;BME280;55563;52.416;13.548;2022-09-09T10:50:53;100782.31;;;22.40;75.58
68594;BME280;55563;52.416;13.548;2022-09-09T10:53:22;100783.09;;;22.41;76.68
68594;BME280;55563;52.416;13.548;2022-09-09T10:55:36;100776.31;;;22.43;75.62
68594;BME280;55563;52.416;13.548;2022-09-09T10:57:43;100777.75;;;22.65;75.28
68594;BME280;55563;52.416;13.548;2022-09-09T10:59:48;100776.63;;;23.02;74.46
68594;BME280;55563;52.416;13.548;2022-09-09T11:02:01;100777.28;;;23.12;72.86
68594;BME280;55563;52.416;13.548;2022-09-09T11:04:23;100778.97;;;23.16;71.19
68594;BME280;55563;52.416;13.548;2022-09-09T11:06:31;100780.00;;;23.39;73.61
68594;BME280;55563;52.416;13.548;2022-09-09T11:08:35;100776.44;;;23.35;74.03
68594;BME280;55563;52.416;13.548;2022-09-09T11:10:51;100774.81;;;23.59;72.05
68594;BME280;55563;52.416;13.548;2022-09-09T11:13:02;100779.59;;;23.65;71.91
68594;BME280;55563;52.416;13.548;2022-09-09T11:15:08;100778.22;;;23.71;71.63
68594;BME280;55563;52.416;13.548;2022-09-09T11:17:18;100773.22;;;23.30;72.45
68594;BME280;55563;52.416;13.548;2022-09-09T11:19:33;100774.28;;;23.41;71.18
68594;BME280;55563;52.416;13.548;2022-09-09T11:21:36;100771.06;;;23.48;70.78
68594;BME280;55563;52.416;13.548;2022-09-09T11:23:42;100777.53;;;23.74;72.20
68594;BME280;55563;52.416;13.548;2022-09-09T11:25:52;100775.75;;;23.78;71.50
68594;BME280;55563;52.416;13.548;2022-09-09T11:33:28;100770.88;;;23.84;68.87
68594;BME280;55563;52.416;13.548;2022-09-09T11:35:58;100773.25;;;24.01;72.40